Time;durP1;ratioP1;P1;durP2;ratioP2;P2;SDS_P1;SDS_P2;PMS_P1;PMS_P2;Temp;Humidity;BMP_temperature;BMP_pressure;BME280_temperature;BME280_humidity;BME280_pressure;Samples;Min_cycle;Max_cycle;Signal;HPM_P1;HPM_P2
2021/07/01 00:00:30;;;;;;;39.50;17.47;;;14.10;97.80;;;;;;5094644;28;20519;-79
2021/07/01 00:02:55;;;;;;;39.57;17.50;;;14.10;97.80;;;;;;5094024;28;20507;-79
2021/07/01 00:05:21;;;;;;;40.13;18.03;;;14.10;97.80;;;;;;5094696;28;20048;-78
2021/07/01 00:07:49;;;;;;;36.20;17.70;;;14.10;97.80;;;;;;5094566;28;20047;-78
2021/07/01 00:10:18;;;;;;;34.20;16.83;;;14.10;97.80;;;;;;5093520;28;20416;-77
2021/07/01 00:12:44;;;;;;;45.17;18.77;;;14.10;97.80;;;;;;5094312;28;20051;-78
2021/07/01 00:15:13;;;;;;;32.90;16.60;;;14.10;97.80;;;;;;5094258;28;20051;-78
2021/07/01 00:17:40;;;;;;;32.07;17.13;;;14.10;97.80;;;;;;5093729;28;20044;-77
2021/07/01 00:20:07;;;;;;;32.23;16.80;;;14.10;97.80;;;;;;5094283;28;20048;-77
2021/07/01 00:22:32;;;;;;;31.80;16.00;;;14.10;97.80;;;;;;5094040;28;20210;-80
2021/07/01 00:24:58;;;;;;;39.67;16.70;;;14.20;97.80;;;;;;5093148;28;20496;-77
2021/07/01 00:27:24;;;;;;;35.20;18.23;;;14.10;97.80;;;;;;5093602;28;20072;-79
2021/07/01 00:29:49;;;;;;;37.03;17.07;;;14.10;97.80;;;;;;5093094;28;20087;-78
2021/07/01 00:32:16;;;;;;;39.47;15.87;;;14.10;97.80;;;;;;5094183;28;20074;-76
2021/07/01 00:34:41;;;;;;;32.40;17.00;;;14.10;97.70;;;;;;5094377;28;20466;-77
2021/07/01 00:37:07;;;;;;;42.03;16.20;;;14.00;97.70;;;;;;5093473;28;20054;-77
2021/07/01 00:39:32;;;;;;;35.63;16.53;;;14.10;97.70;;;;;;5093770;28;20040;-76
2021/07/01 00:41:58;;;;;;;28.57;15.67;;;14.00;97.70;;;;;;5093901;28;20139;-77
2021/07/01 00:44:24;;;;;;;27.83;16.30;;;14.00;97.60;;;;;;5092973;28;20055;-77
2021/07/01 00:46:50;;;;;;;37.47;18.63;;;14.00;97.70;;;;;;5094074;28;20052;-77
2021/07/01 00:49:15;;;;;;;35.53;17.40;;;14.00;97.70;;;;;;5093994;28;20040;-77
2021/07/01 00:51:41;;;;;;;36.83;16.40;;;14.00;97.70;;;;;;5093393;28;20512;-77
2021/07/01 00:54:07;;;;;;;31.60;16.57;;;14.00;97.70;;;;;;5094087;28;20392;-76
2021/07/01 00:56:38;;;;;;;36.80;16.37;;;13.90;97.70;;;;;;5093437;28;20073;-78
2021/07/01 00:59:07;;;;;;;33.78;17.00;;;13.90;97.70;;;;;;5093277;28;20071;-77
2021/07/01 01:01:33;;;;;;;41.07;16.87;;;14.00;97.70;;;;;;5093485;28;20052;-76
2021/07/01 01:03:59;;;;;;;37.33;18.37;;;13.90;97.70;;;;;;5093521;28;20043;-78
2021/07/01 01:06:25;;;;;;;33.77;18.20;;;13.90;97.80;;;;;;5092519;28;20044;-79
2021/07/01 01:08:51;;;;;;;33.63;17.07;;;13.90;97.80;;;;;;5094009;28;20139;-78
2021/07/01 01:11:17;;;;;;;32.33;17.37;;;13.80;97.80;;;;;;5093487;28;20131;-79
2021/07/01 01:13:45;;;;;;;39.33;18.77;;;13.90;97.90;;;;;;5093184;28;20135;-78
2021/07/01 01:16:10;;;;;;;31.43;18.33;;;13.80;97.90;;;;;;5092951;28;20481;-78
2021/07/01 01:18:36;;;;;;;34.23;18.57;;;13.80;97.90;;;;;;5093359;28;20051;-78
2021/07/01 01:21:02;;;;;;;33.27;18.27;;;13.80;97.90;;;;;;5093035;28;20070;-78
2021/07/01 01:23:29;;;;;;;36.70;19.10;;;13.80;98.00;;;;;;5093853;28;20209;-77
2021/07/01 01:25:58;;;;;;;32.83;19.10;;;13.80;98.10;;;;;;5093238;28;20496;-77
2021/07/01 01:28:24;;;;;;;36.83;19.00;;;13.80;98.10;;;;;;5093156;28;20060;-78
2021/07/01 01:30:50;;;;;;;32.50;19.57;;;13.80;98.10;;;;;;5093601;28;20055;-79
2021/07/01 01:33:17;;;;;;;38.57;20.30;;;13.80;98.10;;;;;;5092720;28;20052;-79
2021/07/01 01:35:42;;;;;;;33.20;19.67;;;13.80;98.20;;;;;;5093685;28;20057;-77
2021/07/01 01:38:13;;;;;;;41.20;20.07;;;13.80;98.20;;;;;;5094012;28;20415;-81
2021/07/01 01:40:40;;;;;;;35.58;20.02;;;13.80;98.30;;;;;;5092959;28;20101;-78
2021/07/01 01:43:06;;;;;;;38.03;19.87;;;13.80;98.30;;;;;;5094278;28;20079;-78
2021/07/01 01:45:36;;;;;;;35.67;19.77;;;13.80;98.30;;;;;;5094077;28;20498;-79
2021/07/01 01:48:01;;;;;;;42.40;19.63;;;13.80;98.40;;;;;;5093374;28;20052;-78
2021/07/01 01:50:27;;;;;;;37.90;21.57;;;13.90;98.40;;;;;;5093186;28;20051;-79
2021/07/01 01:52:53;;;;;;;42.10;20.97;;;13.90;98.40;;;;;;5094192;28;20063;-79
2021/07/01 01:55:18;;;;;;;34.63;20.07;;;13.80;98.40;;;;;;5094073;28;20047;-80
2021/07/01 01:57:46;;;;;;;42.97;19.60;;;13.90;98.50;;;;;;5093993;28;20479;-78
2021/07/01 02:00:13;;;;;;;35.13;19.37;;;13.90;98.50;;;;;;5093497;28;20079;-78
2021/07/01 02:02:39;;;;;;;41.33;20.50;;;13.90;98.50;;;;;;5093304;28;20063;-78
2021/07/01 02:05:07;;;;;;;39.47;19.73;;;13.90;98.60;;;;;;5093831;28;20047;-79
2021/07/01 02:07:33;;;;;;;39.23;20.20;;;13.90;98.60;;;;;;5093606;28;20522;-77
2021/07/01 02:09:59;;;;;;;34.13;19.93;;;13.90;98.60;;;;;;5092556;28;20050;-77
2021/07/01 02:12:25;;;;;;;37.73;21.00;;;13.90;98.70;;;;;;5093201;28;20051;-78
2021/07/01 02:14:51;;;;;;;36.83;20.70;;;13.90;98.70;;;;;;5093575;28;20465;-78
2021/07/01 02:17:17;;;;;;;40.50;20.70;;;13.90;98.70;;;;;;5091894;28;20048;-77
2021/07/01 02:19:43;;;;;;;39.13;21.23;;;13.90;98.70;;;;;;5092738;28;20048;-76
2021/07/01 02:22:08;;;;;;;36.53;20.83;;;13.90;98.70;;;;;;5092510;28;20561;-77
2021/07/01 02:24:34;;;;;;;41.03;20.70;;;14.00;98.80;;;;;;5092133;28;20541;-76
2021/07/01 02:27:10;;;;;;;43.03;21.70;;;14.00;98.80;;;;;;5092269;28;20048;-77
2021/07/01 02:29:36;;;;;;;39.97;21.67;;;14.00;98.80;;;;;;5091633;28;20048;-76
2021/07/01 02:32:03;;;;;;;36.07;21.10;;;14.00;98.90;;;;;;5092685;28;20052;-76
2021/07/01 02:34:30;;;;;;;42.87;22.03;;;14.00;98.90;;;;;;5091669;28;20130;-77
2021/07/01 02:36:56;;;;;;;44.37;22.17;;;14.00;98.80;;;;;;5091634;28;20550;-78
2021/07/01 02:39:21;;;;;;;46.13;23.10;;;14.00;98.90;;;;;;5092015;28;20048;-78
2021/07/01 02:41:47;;;;;;;41.13;21.60;;;14.00;98.90;;;;;;5092287;28;20093;-78
2021/07/01 02:44:13;;;;;;;47.07;21.60;;;14.00;98.90;;;;;;5090931;28;20109;-77
2021/07/01 02:46:39;;;;;;;42.57;22.17;;;14.00;98.90;;;;;;5092164;28;20381;-76
2021/07/01 02:49:04;;;;;;;47.47;22.10;;;14.00;98.90;;;;;;5092218;28;20055;-75
2021/07/01 02:51:30;;;;;;;48.87;22.53;;;14.10;99.00;;;;;;5091469;28;20044;-77
2021/07/01 02:53:56;;;;;;;50.50;23.77;;;14.00;99.00;;;;;;5096384;28;20093;-77
2021/07/01 02:56:21;;;;;;;43.87;22.40;;;14.00;99.00;;;;;;5096329;28;20048;-76
2021/07/01 02:58:48;;;;;;;42.73;23.17;;;14.10;99.00;;;;;;5095851;28;20104;-77
2021/07/01 03:01:14;;;;;;;43.47;23.50;;;14.10;99.00;;;;;;5096412;28;20052;-79
2021/07/01 03:03:40;;;;;;;41.47;22.37;;;14.10;99.00;;;;;;5096487;28;20139;-79
2021/07/01 03:06:06;;;;;;;47.37;23.67;;;14.10;99.00;;;;;;5096192;28;20043;-80
2021/07/01 03:08:32;;;;;;;40.53;22.13;;;14.10;99.00;;;;;;5095957;28;20400;-79
2021/07/01 03:10:57;;;;;;;44.87;21.47;;;14.10;99.00;;;;;;5096169;28;20123;-79
2021/07/01 03:13:23;;;;;;;45.37;22.07;;;14.10;99.00;;;;;;5095350;28;20048;-78
2021/07/01 03:15:49;;;;;;;48.43;23.27;;;14.10;99.00;;;;;;5096689;28;20086;-78
2021/07/01 03:18:14;;;;;;;43.37;22.70;;;14.10;99.10;;;;;;5096019;28;20079;-78
2021/07/01 03:20:40;;;;;;;50.90;23.80;;;14.10;99.10;;;;;;5095483;28;20463;-79
2021/07/01 03:23:06;;;;;;;43.27;21.97;;;14.10;99.10;;;;;;5095883;28;20044;-79
2021/07/01 03:25:31;;;;;;;45.90;23.57;;;14.10;99.10;;;;;;5095287;28;20063;-81
2021/07/01 03:27:57;;;;;;;45.07;23.13;;;14.10;99.10;;;;;;5096895;28;20480;-78
2021/07/01 03:30:23;;;;;;;39.53;23.30;;;14.10;99.10;;;;;;5096432;28;20052;-81
2021/07/01 03:32:49;;;;;;;45.07;23.90;;;14.10;99.10;;;;;;5095191;28;20051;-79
2021/07/01 03:35:15;;;;;;;50.43;24.00;;;14.10;99.10;;;;;;5096132;28;20052;-78
2021/07/01 03:37:41;;;;;;;47.97;23.60;;;14.10;99.20;;;;;;5097005;28;20412;-78
2021/07/01 03:40:09;;;;;;;48.13;24.63;;;14.10;99.20;;;;;;5095193;28;20464;-79
2021/07/01 03:42:34;;;;;;;45.43;23.47;;;14.10;99.20;;;;;;5095676;28;20411;-79
2021/07/01 03:45:00;;;;;;;44.17;25.00;;;14.10;99.20;;;;;;5096137;28;20040;-77
2021/07/01 03:47:26;;;;;;;39.30;22.80;;;14.20;99.20;;;;;;5094022;28;20052;-78
2021/07/01 03:49:52;;;;;;;43.07;24.63;;;14.10;99.20;;;;;;5094898;28;20094;-78
2021/07/01 03:52:17;;;;;;;52.87;25.77;;;14.10;99.20;;;;;;5095099;28;20047;-76
2021/07/01 03:54:43;;;;;;;45.93;23.27;;;14.20;99.30;;;;;;5094430;28;20134;-78
2021/07/01 03:57:09;;;;;;;43.73;23.40;;;14.10;99.20;;;;;;5094595;28;20104;-78
2021/07/01 03:59:34;;;;;;;42.57;24.43;;;14.20;99.30;;;;;;5094833;28;20048;-77
2021/07/01 04:02:00;;;;;;;49.90;24.80;;;14.20;99.30;;;;;;5093907;28;20044;-77
2021/07/01 04:04:26;;;;;;;45.17;24.47;;;14.20;99.30;;;;;;5093828;28;20059;-77
2021/07/01 04:06:52;;;;;;;53.63;25.03;;;14.20;99.40;;;;;;5095123;28;20048;-78
2021/07/01 04:09:17;;;;;;;43.40;23.80;;;14.20;99.40;;;;;;5094648;28;20052;-78
2021/07/01 04:11:44;;;;;;;51.37;24.57;;;14.20;99.40;;;;;;5095334;28;20044;-78
2021/07/01 04:14:10;;;;;;;43.03;24.53;;;14.20;99.40;;;;;;5094502;28;20420;-78
2021/07/01 04:16:35;;;;;;;45.50;25.80;;;14.20;99.40;;;;;;5093933;28;20055;-79
2021/07/01 04:19:01;;;;;;;50.73;25.13;;;14.20;99.40;;;;;;5095132;28;20388;-78
2021/07/01 04:21:28;;;;;;;44.70;24.43;;;14.20;99.40;;;;;;5094378;28;20048;-78
2021/07/01 04:23:57;;;;;;;52.67;25.97;;;14.20;99.40;;;;;;5093934;28;20051;-78
2021/07/01 04:26:24;;;;;;;46.63;24.03;;;14.30;99.40;;;;;;5094533;28;20052;-79
2021/07/01 04:28:51;;;;;;;53.93;24.73;;;14.30;99.40;;;;;;5096397;28;20432;-78
2021/07/01 04:31:19;;;;;;;50.73;24.20;;;14.30;99.40;;;;;;5108533;27;20063;-79
2021/07/01 04:33:45;;;;;;;58.20;25.30;;;14.30;99.40;;;;;;5095052;28;20075;-77
2021/07/01 04:36:11;;;;;;;51.13;25.23;;;14.30;99.40;;;;;;5093981;28;20534;-77
2021/07/01 04:38:37;;;;;;;49.23;24.27;;;14.30;99.30;;;;;;5094806;28;20052;-78
2021/07/01 04:41:03;;;;;;;45.43;23.80;;;14.30;99.30;;;;;;5094865;28;20062;-78
2021/07/01 04:43:28;;;;;;;51.30;25.33;;;14.30;99.30;;;;;;5094137;28;20052;-78
2021/07/01 04:45:54;;;;;;;48.30;24.83;;;14.30;99.30;;;;;;5094867;28;20051;-78
2021/07/01 04:48:19;;;;;;;51.63;24.87;;;14.40;99.40;;;;;;5094241;28;20098;-77
2021/07/01 04:50:45;;;;;;;47.50;24.87;;;14.40;99.40;;;;;;5093539;28;20048;-77
2021/07/01 04:53:11;;;;;;;51.80;24.63;;;14.40;99.40;;;;;;5094047;28;20051;-77
2021/07/01 04:55:36;;;;;;;47.93;25.03;;;14.40;99.40;;;;;;5093791;28;20051;-77
2021/07/01 04:58:02;;;;;;;50.30;25.13;;;14.40;99.40;;;;;;5093037;28;20044;-75
2021/07/01 05:00:28;;;;;;;49.03;23.83;;;14.40;99.30;;;;;;5092739;28;20048;-76
2021/07/01 05:02:53;;;;;;;42.73;23.43;;;14.40;99.40;;;;;;5093264;28;20150;-77
2021/07/01 05:05:19;;;;;;;51.47;25.30;;;14.40;99.30;;;;;;5092306;28;20052;-78
2021/07/01 05:07:46;;;;;;;51.10;25.20;;;14.40;99.30;;;;;;5093042;28;20080;-78
2021/07/01 05:10:14;;;;;;;49.47;26.23;;;14.40;99.30;;;;;;5093057;28;20055;-78
2021/07/01 05:12:40;;;;;;;47.87;24.27;;;14.40;99.30;;;;;;5091991;28;20123;-79
2021/07/01 05:15:06;;;;;;;53.10;24.93;;;14.40;99.30;;;;;;5092816;28;20071;-75
2021/07/01 05:17:33;;;;;;;55.77;25.73;;;14.40;99.30;;;;;;5092660;28;20419;-75
2021/07/01 05:19:59;;;;;;;51.47;24.03;;;14.40;99.30;;;;;;5092475;28;20044;-77
2021/07/01 05:22:25;;;;;;;55.13;26.50;;;14.40;99.70;;;;;;5092645;28;20048;-78
2021/07/01 05:24:50;;;;;;;41.17;23.60;;;14.40;99.30;;;;;;5092798;28;20508;-76
2021/07/01 05:27:16;;;;;;;47.47;26.50;;;14.40;99.30;;;;;;5091463;28;20454;-77
2021/07/01 05:29:42;;;;;;;50.73;24.57;;;14.40;99.30;;;;;;5093177;28;20131;-77
2021/07/01 05:32:08;;;;;;;51.07;25.40;;;14.40;99.40;;;;;;5091781;28;20059;-77
2021/07/01 05:34:33;;;;;;;52.70;26.67;;;14.40;99.40;;;;;;5092726;28;20051;-78
2021/07/01 05:36:59;;;;;;;48.40;26.10;;;14.40;99.40;;;;;;5092325;28;20048;-76
2021/07/01 05:39:25;;;;;;;54.83;26.67;;;14.40;99.50;;;;;;5091860;28;20408;-76
2021/07/01 05:41:51;;;;;;;49.27;27.37;;;14.40;99.50;;;;;;5092360;28;20131;-76
2021/07/01 05:44:16;;;;;;;59.93;27.50;;;14.40;99.50;;;;;;5092489;28;20055;-76
2021/07/01 05:46:42;;;;;;;58.50;26.77;;;14.40;99.50;;;;;;5091610;28;20056;-77
2021/07/01 05:49:08;;;;;;;56.40;27.33;;;14.40;99.60;;;;;;5092414;28;20115;-78
2021/07/01 05:51:35;;;;;;;63.07;28.87;;;14.40;99.60;;;;;;5092260;28;20043;-75
2021/07/01 05:54:10;;;;;;;57.53;28.63;;;14.50;99.60;;;;;;5091965;28;20135;-77
2021/07/01 05:56:39;;;;;;;53.63;27.33;;;14.50;99.60;;;;;;5092455;28;20441;-74
2021/07/01 05:59:09;;;;;;;54.30;26.00;;;14.50;99.60;;;;;;5092786;28;20074;-79
2021/07/01 06:01:36;;;;;;;48.93;26.23;;;14.50;99.60;;;;;;5091512;28;20052;-75
2021/07/01 06:04:11;;;;;;;58.00;25.63;;;14.50;99.60;;;;;;5092549;28;20467;-78
2021/07/01 06:06:40;;;;;;;45.00;25.03;;;14.50;99.60;;;;;;5091355;28;20047;-75
2021/07/01 06:09:06;;;;;;;44.97;26.17;;;14.60;99.70;;;;;;5089526;28;20483;-77
2021/07/01 06:11:36;;;;;;;58.13;27.77;;;14.50;99.60;;;;;;5091314;28;20227;-78
2021/07/01 06:14:05;;;;;;;50.97;27.73;;;14.60;99.60;;;;;;5091489;28;20151;-78
2021/07/01 06:16:33;;;;;;;57.00;29.10;;;14.60;99.60;;;;;;5090723;28;20055;-76
2021/07/01 06:19:01;;;;;;;49.63;27.07;;;14.60;99.70;;;;;;5092140;28;20051;-77
2021/07/01 06:21:28;;;;;;;51.87;27.27;;;14.60;99.70;;;;;;5090940;28;20052;-77
2021/07/01 06:23:57;;;;;;;53.30;27.60;;;14.60;99.70;;;;;;5092581;28;20526;-78
2021/07/01 06:26:28;;;;;;;49.73;29.87;;;14.60;99.70;;;;;;5092211;28;20048;-80
2021/07/01 06:28:57;;;;;;;51.70;28.25;;;14.70;99.70;;;;;;5095130;28;20056;-78
2021/07/01 06:31:23;;;;;;;53.10;27.53;;;14.70;99.70;;;;;;5095543;28;20044;-79
2021/07/01 06:33:49;;;;;;;48.90;28.20;;;14.70;99.70;;;;;;5096134;28;20131;-77
2021/07/01 06:36:21;;;;;;;53.60;29.03;;;14.70;99.80;;;;;;5094762;28;20134;-80
2021/07/01 06:38:52;;;;;;;51.73;28.73;;;14.70;99.70;;;;;;5096294;28;20056;-78
2021/07/01 06:41:18;;;;;;;63.63;29.60;;;14.80;99.80;;;;;;5095998;28;20077;-78
2021/07/01 06:43:49;;;;;;;62.00;31.27;;;14.80;99.90;;;;;;5094994;28;20350;-80
2021/07/01 06:46:16;;;;;;;54.33;29.87;;;14.80;99.80;;;;;;5095520;28;20051;-77
2021/07/01 06:48:46;;;;;;;56.10;29.53;;;14.90;99.80;;;;;;5095312;28;20059;-76
2021/07/01 06:51:12;;;;;;;60.00;29.93;;;14.90;99.80;;;;;;5094812;28;20557;-76
2021/07/01 06:53:41;;;;;;;59.23;30.63;;;14.90;99.80;;;;;;5096167;28;20048;-79
2021/07/01 06:56:07;;;;;;;55.07;30.60;;;15.00;99.90;;;;;;5095810;28;20041;-76
2021/07/01 06:58:34;;;;;;;56.73;29.63;;;15.00;99.80;;;;;;5094816;28;20139;-76
2021/07/01 07:01:00;;;;;;;61.70;31.50;;;15.00;99.80;;;;;;5095784;28;20040;-76
2021/07/01 07:03:26;;;;;;;57.57;29.67;;;15.10;99.80;;;;;;5095605;28;20043;-76
2021/07/01 07:05:53;;;;;;;61.07;30.80;;;15.10;99.80;;;;;;5094769;28;20476;-77
2021/07/01 07:08:20;;;;;;;51.73;28.80;;;15.10;99.80;;;;;;5095448;28;20052;-76
2021/07/01 07:10:46;;;;;;;53.30;29.40;;;15.20;99.80;;;;;;5094964;28;20126;-76
2021/07/01 07:13:13;;;;;;;56.87;31.77;;;15.20;99.80;;;;;;5095575;28;20055;-77
2021/07/01 07:15:41;;;;;;;62.23;31.60;;;15.20;99.70;;;;;;5095290;28;20445;-76
2021/07/01 07:18:18;;;;;;;63.57;32.70;;;15.30;99.70;;;;;;5094934;28;20127;-78
2021/07/01 07:20:46;;;;;;;60.37;31.10;;;15.30;99.70;;;;;;5095508;28;20040;-76
2021/07/01 07:23:19;;;;;;;65.23;31.63;;;15.30;99.70;;;;;;5095169;28;20052;-76
2021/07/01 07:25:46;;;;;;;58.73;31.60;;;15.40;99.70;;;;;;5094414;28;20052;-76
2021/07/01 07:28:15;;;;;;;68.87;32.50;;;15.40;99.70;;;;;;5094999;28;20082;-76
2021/07/01 07:30:42;;;;;;;54.83;30.60;;;15.50;99.70;;;;;;5095185;28;20412;-77
2021/07/01 07:33:09;;;;;;;57.77;30.47;;;15.50;99.60;;;;;;5094174;28;20081;-77
2021/07/01 07:35:35;;;;;;;68.00;34.27;;;15.50;99.60;;;;;;5095409;28;20067;-78
2021/07/01 07:38:04;;;;;;;59.57;32.40;;;15.60;99.60;;;;;;5094124;28;20516;-76
2021/07/01 07:40:30;;;;;;;61.40;33.03;;;15.60;99.60;;;;;;5093370;28;20052;-75
2021/07/01 07:42:58;;;;;;;59.43;32.83;;;15.60;99.60;;;;;;5094835;28;20550;-75
2021/07/01 07:45:24;;;;;;;61.33;33.17;;;15.70;99.60;;;;;;5094784;28;20374;-76
2021/07/01 07:47:50;;;;;;;58.37;30.70;;;15.70;99.60;;;;;;5094033;28;20051;-76
2021/07/01 07:50:16;;;;;;;57.93;31.63;;;15.80;99.60;;;;;;5094521;28;20078;-77
2021/07/01 07:52:47;;;;;;;54.60;30.97;;;15.80;99.60;;;;;;5094537;28;20055;-76
2021/07/01 07:55:16;;;;;;;57.00;31.53;;;15.80;99.50;;;;;;5094545;28;20048;-77
2021/07/01 07:57:44;;;;;;;67.67;32.63;;;15.90;99.50;;;;;;5094268;28;20044;-77
2021/07/01 08:00:10;;;;;;;57.47;33.03;;;15.90;99.40;;;;;;5093405;28;20093;-77
2021/07/01 08:02:51;;;;;;;56.63;31.90;;;16.00;99.40;;;;;;5093688;28;20052;-75
2021/07/01 08:05:27;;;;;;;58.40;32.47;;;16.00;99.40;;;;;;5093975;28;20455;-78
2021/07/01 08:07:54;;;;;;;57.80;33.20;;;16.00;99.30;;;;;;5093572;28;20048;-74
2021/07/01 08:10:27;;;;;;;52.63;31.60;;;16.10;99.30;;;;;;5094422;28;20040;-75
2021/07/01 08:13:01;;;;;;;65.33;34.20;;;16.10;99.30;;;;;;5094595;28;20129;-74
2021/07/01 08:15:28;;;;;;;60.37;31.73;;;16.20;99.40;;;;;;5093295;28;20066;-76
2021/07/01 08:17:54;;;;;;;60.00;32.03;;;16.20;99.30;;;;;;5094270;28;20048;-75
2021/07/01 08:20:22;;;;;;;59.83;29.80;;;16.20;99.30;;;;;;5093710;28;20051;-76
2021/07/01 08:22:50;;;;;;;54.67;31.83;;;16.30;99.30;;;;;;5093706;28;20097;-76
2021/07/01 08:25:17;;;;;;;58.53;32.40;;;16.30;99.20;;;;;;5094356;28;20127;-78
2021/07/01 08:27:45;;;;;;;52.47;31.53;;;16.30;99.20;;;;;;5094505;28;20062;-77
2021/07/01 08:30:13;;;;;;;55.63;31.27;;;16.30;99.20;;;;;;5093223;28;20044;-77
2021/07/01 08:32:39;;;;;;;50.77;30.80;;;16.30;99.20;;;;;;5093789;28;20058;-77
2021/07/01 08:35:07;;;;;;;57.97;31.03;;;16.30;99.20;;;;;;5093521;28;20093;-78
2021/07/01 08:37:34;;;;;;;53.07;30.80;;;16.40;99.20;;;;;;5093742;28;20048;-76
2021/07/01 08:40:03;;;;;;;57.40;31.53;;;16.40;99.20;;;;;;5094012;28;20044;-75
2021/07/01 08:42:35;;;;;;;52.87;30.93;;;16.40;99.10;;;;;;5092707;28;20047;-76
2021/07/01 08:45:05;;;;;;;55.53;31.60;;;16.50;99.10;;;;;;5093582;28;20543;-74
2021/07/01 08:47:33;;;;;;;61.37;32.57;;;16.50;99.10;;;;;;5093412;28;20048;-76
2021/07/01 08:50:01;;;;;;;55.30;31.77;;;16.50;99.10;;;;;;5092640;28;20432;-76
2021/07/01 08:52:29;;;;;;;60.03;35.00;;;16.50;99.00;;;;;;5093202;28;20048;-75
2021/07/01 08:55:01;;;;;;;54.63;33.60;;;16.50;99.00;;;;;;5093079;28;20540;-76
2021/07/01 08:57:30;;;;;;;58.13;32.97;;;16.50;99.00;;;;;;5092382;28;20135;-78
2021/07/01 09:00:10;;;;;;;56.33;31.87;;;16.50;98.90;;;;;;5093264;28;20123;-75
2021/07/01 09:02:45;;;;;;;57.80;32.90;;;16.50;98.90;;;;;;5093393;28;20055;-77
2021/07/01 09:05:18;;;;;;;59.27;33.77;;;16.50;98.90;;;;;;5092236;28;20492;-75
2021/07/01 09:07:50;;;;;;;57.00;33.63;;;16.60;99.00;;;;;;5093203;28;20056;-75
2021/07/01 09:10:16;;;;;;;63.90;34.73;;;16.60;99.00;;;;;;5092022;28;20052;-76
2021/07/01 09:12:47;;;;;;;58.73;35.37;;;16.70;99.00;;;;;;5092407;28;20150;-75
2021/07/01 09:15:13;;;;;;;55.90;34.50;;;16.70;98.90;;;;;;5092206;28;20036;-76
2021/07/01 09:17:47;;;;;;;61.50;34.83;;;16.80;98.80;;;;;;5091536;28;20044;-75
2021/07/01 09:20:18;;;;;;;57.83;33.67;;;16.80;98.80;;;;;;5092264;28;20036;-78
2021/07/01 09:22:44;;;;;;;54.50;33.78;;;16.90;98.80;;;;;;5092217;28;20337;-77
2021/07/01 09:25:12;;;;;;;58.73;35.80;;;16.90;98.80;;;;;;5091460;28;20407;-79
2021/07/01 09:27:43;;;;;;;55.43;32.80;;;16.90;98.80;;;;;;5091878;28;20048;-78
2021/07/01 09:30:09;;;;;;;58.10;34.22;;;17.00;98.80;;;;;;5091855;28;20498;-78
2021/07/01 09:32:36;;;;;;;53.63;36.10;;;17.00;98.70;;;;;;5087983;28;20148;-78
2021/07/01 09:35:03;;;;;;;58.60;35.37;;;17.00;98.70;;;;;;5091695;28;20132;-78
2021/07/01 09:37:38;;;;;;;58.93;33.93;;;17.10;98.60;;;;;;5091129;28;20407;-78
2021/07/01 09:40:05;;;;;;;51.03;34.50;;;17.10;98.60;;;;;;5090170;28;20079;-77
2021/07/01 09:42:33;;;;;;;52.63;35.70;;;17.20;98.60;;;;;;5091787;28;20749;-78
2021/07/01 09:45:07;;;;;;;58.87;34.67;;;17.20;98.60;;;;;;5092095;28;20040;-78
2021/07/01 09:47:39;;;;;;;49.87;32.47;;;17.30;98.60;;;;;;5090778;28;20044;-77
2021/07/01 09:50:07;;;;;;;53.93;32.00;;;17.50;98.60;;;;;;5091761;28;20044;-79
2021/07/01 09:52:38;;;;;;;43.60;30.73;;;17.60;98.40;;;;;;5090503;28;20048;-76
2021/07/01 09:55:05;;;;;;;47.67;30.42;;;17.60;98.30;;;;;;5091719;28;20544;-78
2021/07/01 09:57:36;;;;;;;49.23;30.07;;;17.70;98.00;;;;;;5092155;28;20039;-77
2021/07/01 10:00:08;;;;;;;54.75;31.17;;;17.70;97.80;;;;;;5091629;28;20097;-75
2021/07/01 10:02:34;;;;;;;51.80;31.83;;;17.70;97.80;;;;;;5091475;28;20378;-77
2021/07/01 10:05:00;;;;;;;55.43;32.00;;;17.80;97.80;;;;;;5092544;28;20047;-77
2021/07/01 10:07:26;;;;;;;53.57;33.53;;;17.80;97.70;;;;;;5091522;28;20048;-77
2021/07/01 10:09:54;;;;;;;52.07;33.07;;;17.80;97.70;;;;;;5091974;28;20044;-78
2021/07/01 10:12:24;;;;;;;50.03;32.33;;;17.90;97.80;;;;;;5091962;28;20048;-78
2021/07/01 10:14:51;;;;;;;53.07;32.43;;;18.00;97.70;;;;;;5091260;28;20052;-77
2021/07/01 10:17:19;;;;;;;50.93;32.43;;;18.00;97.40;;;;;;5091934;28;20501;-78
2021/07/01 10:19:46;;;;;;;52.27;33.60;;;18.10;97.40;;;;;;5091803;28;20420;-77
2021/07/01 10:22:18;;;;;;;52.57;32.30;;;18.10;97.40;;;;;;5091252;28;20048;-78
2021/07/01 10:24:50;;;;;;;51.93;33.07;;;18.10;97.30;;;;;;5092362;28;20052;-78
2021/07/01 10:27:27;;;;;;;47.87;31.60;;;18.20;97.20;;;;;;5091661;28;20040;-78
2021/07/01 10:29:55;;;;;;;53.27;32.90;;;18.30;97.00;;;;;;5091554;28;20442;-78
2021/07/01 10:32:35;;;;;;;50.33;31.80;;;18.20;96.90;;;;;;5091791;28;20116;-79
2021/07/01 10:35:01;;;;;;;47.53;32.27;;;18.20;96.80;;;;;;5091539;28;20132;-78
2021/07/01 10:37:27;;;;;;;50.80;33.13;;;18.20;96.70;;;;;;5091395;28;20102;-79
2021/07/01 10:39:53;;;;;;;46.20;30.97;;;18.10;96.70;;;;;;5092196;28;20052;-79
2021/07/01 10:42:20;;;;;;;51.47;30.90;;;18.10;96.90;;;;;;5091399;28;20050;-78
2021/07/01 10:44:46;;;;;;;47.20;31.87;;;18.20;96.90;;;;;;5091790;28;20496;-79
2021/07/01 10:47:27;;;;;;;49.33;32.73;;;18.30;96.90;;;;;;5091563;28;20048;-78
2021/07/01 10:49:53;;;;;;;48.53;29.90;;;18.40;96.80;;;;;;5091184;28;20048;-76
2021/07/01 10:52:19;;;;;;;41.50;30.10;;;18.40;96.80;;;;;;5091591;28;20059;-78
2021/07/01 10:54:58;;;;;;;42.07;30.90;;;18.60;96.70;;;;;;5091725;28;20419;-77
2021/07/01 10:57:28;;;;;;;39.57;29.23;;;18.70;96.50;;;;;;5091112;28;20055;-80
2021/07/01 10:59:54;;;;;;;40.77;28.30;;;18.80;96.20;;;;;;5091985;28;20134;-79
2021/07/01 11:02:31;;;;;;;40.53;28.63;;;18.90;96.00;;;;;;5091499;28;20090;-78
2021/07/01 11:05:03;;;;;;;38.77;28.00;;;19.00;95.50;;;;;;5091378;28;20046;-78
2021/07/01 11:07:43;;;;;;;39.10;27.27;;;19.10;95.50;;;;;;5091915;28;20474;-77
2021/07/01 11:10:10;;;;;;;37.43;26.40;;;19.10;95.50;;;;;;5090211;28;20706;-75
2021/07/01 11:12:44;;;;;;;31.60;24.80;;;19.30;95.40;;;;;;5091642;28;20044;-78
2021/07/01 11:15:10;;;;;;;33.77;24.93;;;19.50;94.90;;;;;;5094868;28;20058;-79
2021/07/01 11:17:39;;;;;;;33.77;24.13;;;19.60;94.80;;;;;;5094651;28;20454;-79
2021/07/01 11:20:17;;;;;;;30.60;23.97;;;19.70;94.60;;;;;;5095520;28;20052;-78
2021/07/01 11:22:45;;;;;;;31.80;25.20;;;19.80;94.30;;;;;;5095050;28;20044;-77
2021/07/01 11:25:26;;;;;;;28.50;23.13;;;19.90;94.20;;;;;;5094102;28;20056;-79
2021/07/01 11:28:11;;;;;;;27.98;22.13;;;20.00;93.50;;;;;;5095050;28;20093;-79
2021/07/01 11:30:49;;;;;;;30.47;23.70;;;19.90;93.50;;;;;;5094956;28;20529;-79
2021/07/01 11:33:17;;;;;;;30.13;22.77;;;19.80;93.40;;;;;;5094640;28;20044;-79
2021/07/01 11:35:43;;;;;;;26.97;21.50;;;19.70;93.50;;;;;;5095184;28;20055;-78
2021/07/01 11:38:24;;;;;;;24.60;21.17;;;19.70;93.20;;;;;;5094006;28;20667;-79
2021/07/01 11:40:51;;;;;;;;;;;19.60;93.10;;;;;;5095378;28;20519;-80
2021/07/01 11:43:18;;;;;;;25.67;20.90;;;19.60;92.80;;;;;;5094662;28;19920;-76
2021/07/01 11:45:44;;;;;;;29.13;21.93;;;19.60;93.50;;;;;;5093660;28;20101;-75
2021/07/01 11:48:11;;;;;;;25.93;20.87;;;19.50;93.30;;;;;;5094186;28;20128;-76
2021/07/01 11:50:37;;;;;;;31.97;22.63;;;19.50;93.20;;;;;;5093816;28;20051;-75
2021/07/01 11:53:04;;;;;;;31.13;23.60;;;19.40;93.30;;;;;;5093120;28;20072;-77
2021/07/01 11:55:30;;;;;;;28.90;22.60;;;19.40;93.30;;;;;;5093430;28;20366;-75
2021/07/01 11:57:56;;;;;;;27.97;21.70;;;19.30;93.00;;;;;;5094021;28;20063;-77
2021/07/01 12:00:21;;;;;;;28.90;22.53;;;19.10;93.10;;;;;;5092503;28;20047;-76
2021/07/01 12:02:48;;;;;;;30.33;23.17;;;19.00;93.30;;;;;;5094169;28;20098;-77
2021/07/01 12:05:14;;;;;;;28.17;22.87;;;18.90;93.40;;;;;;5092308;28;20044;-75
2021/07/01 12:07:42;;;;;;;28.17;22.47;;;18.90;93.60;;;;;;5093265;28;20092;-76
2021/07/01 12:10:09;;;;;;;33.67;21.80;;;18.90;93.80;;;;;;5093960;28;20165;-75
2021/07/01 12:12:37;;;;;;;28.63;22.00;;;19.00;93.90;;;;;;5093850;28;20044;-76
2021/07/01 12:15:14;;;;;;;25.50;21.77;;;19.20;93.80;;;;;;5093122;28;20044;-75
2021/07/01 12:17:55;;;;;;;25.80;20.57;;;19.30;93.80;;;;;;5092816;28;20087;-75
2021/07/01 12:20:28;;;;;;;26.67;20.27;;;19.40;93.50;;;;;;5091870;28;20751;-77
2021/07/01 12:22:54;;;;;;;22.80;19.47;;;19.50;93.40;;;;;;5092733;28;20558;-75
2021/07/01 12:25:40;;;;;;;24.87;21.80;;;19.60;93.30;;;;;;5091483;28;20055;-77
2021/07/01 12:28:07;;;;;;;24.93;20.53;;;19.60;93.20;;;;;;5091961;28;20063;-76
2021/07/01 12:30:55;;;;;;;24.07;18.03;;;19.70;93.20;;;;;;5092685;28;20040;-75